createdAt,value
2022-10-10T00:00:48.755Z,1.10
2022-10-10T00:03:15.612Z,1.20
2022-10-10T00:05:43.089Z,1.10
2022-10-10T00:08:09.914Z,1.13
2022-10-10T00:10:37.373Z,1.33
2022-10-10T00:15:49.988Z,1.10
2022-10-10T00:18:17.320Z,1.63
2022-10-10T00:20:43.893Z,1.15
2022-10-10T00:23:10.942Z,1.23
2022-10-10T00:25:37.873Z,1.60
2022-10-10T00:28:05.621Z,1.60
2022-10-10T00:30:32.986Z,1.40
2022-10-10T00:35:45.162Z,1.35
2022-10-10T00:38:13.168Z,1.27
2022-10-10T00:40:48.554Z,1.40
2022-10-10T00:43:16.849Z,1.50
2022-10-10T00:45:45.749Z,1.30
2022-10-10T00:48:15.252Z,1.40
2022-10-10T00:50:48.207Z,1.45
2022-10-10T00:53:18.294Z,1.50
2022-10-10T00:55:45.860Z,1.40
2022-10-10T00:58:13.526Z,1.48
2022-10-10T01:00:40.322Z,1.30
2022-10-10T01:03:07.206Z,1.30
2022-10-10T01:05:34.320Z,1.30
2022-10-10T01:08:04.201Z,1.42
2022-10-10T01:10:39.356Z,1.52
2022-10-10T01:13:18.755Z,1.88
2022-10-10T01:18:35.937Z,1.30
2022-10-10T01:21:52.365Z,1.50
2022-10-10T01:24:50.455Z,1.20
2022-10-10T01:27:17.288Z,1.33
2022-10-10T01:30:12.226Z,1.40
2022-10-10T01:32:54.227Z,1.50
2022-10-10T01:35:35.953Z,1.15
2022-10-10T01:38:28.416Z,1.40
2022-10-10T01:41:03.955Z,1.90
2022-10-10T01:43:31.297Z,1.38
2022-10-10T01:45:57.916Z,1.30
2022-10-10T01:48:31.341Z,1.40
2022-10-10T01:51:09.740Z,1.30
2022-10-10T01:53:39.066Z,1.45
2022-10-10T01:56:09.662Z,1.50
2022-10-10T01:59:09.486Z,1.20
2022-10-10T02:01:40.462Z,1.48
2022-10-10T02:04:13.528Z,1.40
2022-10-10T02:06:52.082Z,1.20
2022-10-10T02:09:28.278Z,1.20
2022-10-10T02:11:56.535Z,1.17
2022-10-10T02:14:28.946Z,1.30
2022-10-10T02:16:57.625Z,1.40
2022-10-10T02:19:25.363Z,1.50
2022-10-10T02:21:53.534Z,1.40
2022-10-10T02:24:23.867Z,1.40
2022-10-10T02:26:59.813Z,1.00
2022-10-10T02:29:34.102Z,1.00
2022-10-10T02:32:09.583Z,1.00
2022-10-10T02:34:40.374Z,1.15
2022-10-10T02:37:12.437Z,1.20
2022-10-10T02:39:50.130Z,1.02
2022-10-10T02:42:20.699Z,1.30
2022-10-10T02:47:41.339Z,1.10
2022-10-10T02:50:08.474Z,1.10
2022-10-10T02:52:35.294Z,1.20
2022-10-10T02:55:02.114Z,1.23
2022-10-10T02:57:28.926Z,1.08
2022-10-10T02:59:55.624Z,1.33
2022-10-10T03:02:22.342Z,1.08
2022-10-10T03:04:49.047Z,1.42
2022-10-10T03:07:15.861Z,1.13
2022-10-10T03:09:42.732Z,1.42
2022-10-10T03:12:09.540Z,1.40
2022-10-10T03:14:36.449Z,1.20
2022-10-10T03:17:03.145Z,1.13
2022-10-10T03:19:29.876Z,0.90
2022-10-10T03:21:56.503Z,1.05
2022-10-10T03:24:23.103Z,1.20
2022-10-10T03:26:49.697Z,1.10
2022-10-10T03:29:16.287Z,1.00
2022-10-10T03:31:43.241Z,1.23
2022-10-10T03:34:09.881Z,1.15
2022-10-10T03:36:36.605Z,1.08
2022-10-10T03:39:04.142Z,0.90
2022-10-10T03:41:31.200Z,1.25
2022-10-10T03:43:57.819Z,0.95
2022-10-10T03:46:24.438Z,1.00
2022-10-10T03:48:51.040Z,1.08
2022-10-10T03:51:17.695Z,1.30
2022-10-10T03:53:44.582Z,1.10
2022-10-10T03:56:11.998Z,1.10
2022-10-10T03:58:38.567Z,1.20
2022-10-10T04:01:05.260Z,0.93
2022-10-10T04:03:32.325Z,0.90
2022-10-10T04:05:59.021Z,0.90
2022-10-10T04:08:25.970Z,1.30
2022-10-10T04:10:53.990Z,0.90
2022-10-10T04:13:21.662Z,1.30
2022-10-10T04:15:52.156Z,1.15
2022-10-10T04:18:19.781Z,1.45
2022-10-10T04:20:46.775Z,1.00
2022-10-10T04:23:13.600Z,0.90
2022-10-10T04:25:41.811Z,1.17
2022-10-10T04:28:12.266Z,1.00
2022-10-10T04:30:39.059Z,1.10
2022-10-10T04:33:05.590Z,0.90
2022-10-10T04:35:32.379Z,1.30
2022-10-10T04:37:59.131Z,1.30
2022-10-10T04:40:26.991Z,0.80
2022-10-10T04:42:54.737Z,0.93
2022-10-10T04:45:21.697Z,1.10
2022-10-10T04:47:48.379Z,1.05
2022-10-10T04:50:15.004Z,1.02
2022-10-10T04:52:41.792Z,1.10
2022-10-10T04:55:08.618Z,1.13
2022-10-10T04:57:35.355Z,1.02
2022-10-10T05:00:02.535Z,1.00
2022-10-10T05:02:29.135Z,0.90
2022-10-10T05:04:55.981Z,1.15
2022-10-10T05:07:22.684Z,1.17
2022-10-10T05:09:49.293Z,1.00
2022-10-10T05:12:16.163Z,1.20
2022-10-10T05:14:47.817Z,1.00
2022-10-10T05:17:15.048Z,1.10
2022-10-10T05:19:41.793Z,1.15
2022-10-10T05:22:08.367Z,1.10
2022-10-10T05:24:34.990Z,1.15
2022-10-10T05:27:01.654Z,1.02
2022-10-10T05:29:28.790Z,0.90
2022-10-10T05:31:55.777Z,1.00
2022-10-10T05:34:22.648Z,1.10
2022-10-10T05:36:49.387Z,1.00
2022-10-10T05:39:15.997Z,1.02
2022-10-10T05:41:42.608Z,1.42
2022-10-10T05:44:10.175Z,1.20
2022-10-10T05:46:36.998Z,0.90
2022-10-10T05:49:03.760Z,1.10
2022-10-10T05:51:30.386Z,1.27
2022-10-10T05:53:57.531Z,1.50
2022-10-10T05:56:24.245Z,1.10
2022-10-10T05:58:51.889Z,1.17
2022-10-10T06:01:18.662Z,1.00
2022-10-10T06:03:45.373Z,1.00
2022-10-10T06:06:12.087Z,1.15
2022-10-10T06:08:38.916Z,1.05
2022-10-10T06:11:11.184Z,0.93
2022-10-10T06:13:38.982Z,0.95
2022-10-10T06:16:05.740Z,0.85
2022-10-10T06:18:32.296Z,1.30
2022-10-10T06:21:07.232Z,1.00
2022-10-10T06:23:34.651Z,0.90
2022-10-10T06:26:01.229Z,1.13
2022-10-10T06:28:27.905Z,1.00
2022-10-10T06:30:54.716Z,1.08
2022-10-10T06:33:21.416Z,0.88
2022-10-10T06:35:49.307Z,0.98
2022-10-10T06:38:17.100Z,0.98
2022-10-10T06:40:43.988Z,1.13
2022-10-10T06:43:12.603Z,1.05
2022-10-10T06:45:41.369Z,1.00
2022-10-10T06:48:08.644Z,1.13
2022-10-10T06:50:35.598Z,0.98
2022-10-10T06:53:02.306Z,0.90
2022-10-10T06:55:28.916Z,1.05
2022-10-10T06:57:55.735Z,1.10
2022-10-10T07:00:22.331Z,1.08
2022-10-10T07:02:49.120Z,1.13
2022-10-10T07:05:17.931Z,1.30
2022-10-10T07:07:45.574Z,1.23
2022-10-10T07:10:14.840Z,1.10
2022-10-10T07:12:44.762Z,1.15
2022-10-10T07:15:12.649Z,1.10
2022-10-10T07:17:39.556Z,1.30
2022-10-10T07:20:06.741Z,1.15
2022-10-10T07:22:33.781Z,1.52
2022-10-10T07:25:00.588Z,1.60
2022-10-10T07:27:27.596Z,2.00
2022-10-10T07:29:54.707Z,2.42
2022-10-10T07:32:21.568Z,3.20
2022-10-10T07:34:48.100Z,3.17
2022-10-10T07:37:14.799Z,4.30
2022-10-10T07:39:41.575Z,4.93
2022-10-10T07:42:08.152Z,4.85
2022-10-10T07:44:35.007Z,5.70
2022-10-10T07:47:02.052Z,6.40
2022-10-10T07:49:28.963Z,6.07
2022-10-10T07:51:58.925Z,6.72
2022-10-10T07:54:29.030Z,7.72
2022-10-10T07:56:56.025Z,7.78
2022-10-10T07:59:23.233Z,7.88
2022-10-10T08:01:50.842Z,8.35
2022-10-10T08:04:18.236Z,7.97
2022-10-10T08:06:44.832Z,8.48
2022-10-10T08:09:11.531Z,8.32
2022-10-10T08:11:38.111Z,7.75
2022-10-10T08:14:04.772Z,8.07
2022-10-10T08:16:31.687Z,8.80
2022-10-10T08:18:58.526Z,8.90
2022-10-10T08:21:25.445Z,8.10
2022-10-10T08:23:52.304Z,8.07
2022-10-10T08:26:20.126Z,7.82
2022-10-10T08:28:48.630Z,8.23
2022-10-10T08:31:19.236Z,8.55
2022-10-10T08:33:47.381Z,8.18
2022-10-10T08:36:16.827Z,7.95
2022-10-10T08:38:43.966Z,8.48
2022-10-10T08:41:34.446Z,8.80
2022-10-10T08:44:07.638Z,8.05
2022-10-10T08:46:44.587Z,8.48
2022-10-10T08:49:49.850Z,8.23
2022-10-10T08:52:43.410Z,7.85
2022-10-10T08:55:21.773Z,8.63
2022-10-10T08:57:50.570Z,8.10
2022-10-10T09:00:22.349Z,7.72
2022-10-10T09:02:54.540Z,8.63
2022-10-10T09:05:36.733Z,7.60
2022-10-10T09:08:27.158Z,8.38
2022-10-10T09:11:05.948Z,7.43
2022-10-10T09:14:08.078Z,8.32
2022-10-10T09:16:56.187Z,8.02
2022-10-10T09:19:33.484Z,9.02
2022-10-10T09:22:05.090Z,8.75
2022-10-10T09:24:41.113Z,8.70
2022-10-10T09:27:15.265Z,8.13
2022-10-10T09:29:50.348Z,8.02
2022-10-10T09:32:30.376Z,7.80
2022-10-10T09:35:14.354Z,8.57
2022-10-10T09:37:47.311Z,8.57
2022-10-10T09:40:42.581Z,8.43
2022-10-10T09:43:15.465Z,8.80
2022-10-10T09:45:52.506Z,7.93
2022-10-10T09:48:22.098Z,7.80
2022-10-10T09:50:48.630Z,8.23
2022-10-10T09:53:16.609Z,8.88
2022-10-10T09:55:46.403Z,8.90
2022-10-10T09:58:25.082Z,8.00
2022-10-10T10:00:53.758Z,7.87
2022-10-10T10:03:22.212Z,8.35
2022-10-10T10:06:01.836Z,7.82
2022-10-10T10:08:31.749Z,8.18
2022-10-10T10:10:59.769Z,7.60
2022-10-10T10:13:37.553Z,7.68
2022-10-10T10:16:13.538Z,7.53
2022-10-10T10:18:47.714Z,7.78
2022-10-10T10:21:21.127Z,7.00
2022-10-10T10:24:01.347Z,7.88
2022-10-10T10:26:46.154Z,7.75
2022-10-10T10:29:29.752Z,7.55
2022-10-10T10:32:15.023Z,7.78
2022-10-10T10:34:56.347Z,6.97
2022-10-10T10:37:43.597Z,7.28
2022-10-10T10:40:22.435Z,7.72
2022-10-10T10:43:03.839Z,7.55
2022-10-10T10:46:09.365Z,6.60
2022-10-10T10:49:01.072Z,7.43
2022-10-10T10:51:42.782Z,6.93
2022-10-10T10:54:31.387Z,6.70
2022-10-10T10:57:32.870Z,6.93
2022-10-10T11:01:22.619Z,6.60
2022-10-10T11:05:21.340Z,6.88
2022-10-10T11:06:59.804Z,6.70
2022-10-10T11:09:50.077Z,6.65
2022-10-10T11:12:29.226Z,6.32
2022-10-10T11:15:19.261Z,6.13
2022-10-10T11:17:59.699Z,5.80
2022-10-10T11:20:46.378Z,6.28
2022-10-10T11:23:38.816Z,5.97
2022-10-10T11:26:10.311Z,6.28
2022-10-10T11:28:49.132Z,5.90
2022-10-10T11:33:54.344Z,5.85
2022-10-10T11:36:26.171Z,5.82
2022-10-10T11:39:15.441Z,5.93
2022-10-10T11:41:53.982Z,6.13
2022-10-10T11:44:32.992Z,5.35
2022-10-10T11:47:09.379Z,6.00
2022-10-10T11:49:54.224Z,5.15
2022-10-10T11:52:56.398Z,5.65
2022-10-10T11:55:49.198Z,5.80
2022-10-10T11:58:40.627Z,6.43
2022-10-10T12:01:18.665Z,7.95
2022-10-10T12:03:45.525Z,6.90
2022-10-10T12:06:19.862Z,7.40
2022-10-10T12:09:15.919Z,7.85
2022-10-10T12:32:19.403Z,9.25
2022-10-10T12:34:48.649Z,9.80
2022-10-10T12:40:07.298Z,8.85
2022-10-10T12:43:01.586Z,10.20
2022-10-10T12:45:31.167Z,9.73
2022-10-10T12:48:07.135Z,10.02
2022-10-10T12:50:43.700Z,9.13
2022-10-10T12:53:13.210Z,10.10
2022-10-10T12:55:46.087Z,9.57
2022-10-10T12:58:30.179Z,9.75
2022-10-10T13:01:00.623Z,10.43
2022-10-10T13:03:39.901Z,9.52
2022-10-10T13:06:18.452Z,10.25
2022-10-10T13:08:45.576Z,10.03
2022-10-10T13:11:14.905Z,10.25
2022-10-10T13:13:50.866Z,10.55
2022-10-10T13:16:20.232Z,10.27
2022-10-10T13:21:22.296Z,10.68
2022-10-10T13:26:43.801Z,10.65
2022-10-10T13:29:44.637Z,9.95
2022-10-10T13:32:14.983Z,9.88
2022-10-10T13:34:46.465Z,10.10
2022-10-10T13:37:18.808Z,9.80
2022-10-10T13:39:45.837Z,10.65
2022-10-10T13:42:27.170Z,9.70
2022-10-10T13:44:55.919Z,10.20
2022-10-10T13:48:00.826Z,10.23
2022-10-10T13:50:30.225Z,11.05
2022-10-10T13:55:42.044Z,10.88
2022-10-10T13:58:10.471Z,10.68
2022-10-10T14:00:37.870Z,10.13
2022-10-10T14:03:18.415Z,9.93
2022-10-10T14:05:46.754Z,10.10
2022-10-10T14:08:18.740Z,9.35
2022-10-10T14:11:07.042Z,10.05
2022-10-10T14:13:37.299Z,9.30
2022-10-10T14:16:21.540Z,9.30
2022-10-10T14:18:48.125Z,9.88
2022-10-10T14:21:14.797Z,9.68
2022-10-10T14:23:41.456Z,9.88
2022-10-10T14:26:15.796Z,9.27
2022-10-10T14:28:42.569Z,9.10
2022-10-10T14:31:09.500Z,9.60
2022-10-10T14:33:36.398Z,9.18
2022-10-10T14:36:04.280Z,9.43
2022-10-10T14:38:31.190Z,9.68
2022-10-10T14:40:57.958Z,8.95
2022-10-10T14:43:24.739Z,9.45
2022-10-10T14:45:53.381Z,8.55
2022-10-10T14:48:20.527Z,9.43
2022-10-10T14:50:48.763Z,8.98
2022-10-10T14:53:15.708Z,8.98
2022-10-10T14:55:43.617Z,8.50
2022-10-10T14:58:15.192Z,9.10
2022-10-10T15:00:41.919Z,8.65
2022-10-10T15:03:08.745Z,8.52
2022-10-10T15:05:35.374Z,7.97
2022-10-10T15:08:01.946Z,8.68
2022-10-10T15:10:33.789Z,8.45
2022-10-10T15:13:01.676Z,8.10
2022-10-10T15:15:28.279Z,7.47
2022-10-10T15:17:57.189Z,8.18
2022-10-10T15:20:30.761Z,8.00
2022-10-10T15:22:59.702Z,7.53
2022-10-10T15:25:33.102Z,8.17
2022-10-10T15:28:01.468Z,7.55
2022-10-10T15:30:28.636Z,7.45
2022-10-10T15:32:55.257Z,7.88
2022-10-10T15:35:24.475Z,7.70
2022-10-10T15:37:51.137Z,7.80
2022-10-10T15:40:21.395Z,7.60
2022-10-10T15:42:49.049Z,7.80
2022-10-10T15:45:26.530Z,7.05
2022-10-10T15:48:02.211Z,7.80
2022-10-10T15:50:28.809Z,6.85
2022-10-10T15:52:55.359Z,7.82
2022-10-10T15:55:21.917Z,7.53
2022-10-10T15:57:48.480Z,7.53
2022-10-10T16:00:15.849Z,6.85
2022-10-10T16:02:42.554Z,6.88
2022-10-10T16:05:10.155Z,6.82
2022-10-10T16:07:46.665Z,6.63
2022-10-10T16:10:14.607Z,6.57
2022-10-10T16:12:41.434Z,6.65
2022-10-10T16:15:08.533Z,6.72
2022-10-10T16:17:35.205Z,6.82
2022-10-10T16:20:02.175Z,6.10
2022-10-10T16:22:28.821Z,6.57
2022-10-10T16:27:43.776Z,6.70
2022-10-10T16:30:11.387Z,6.28
2022-10-10T16:32:42.110Z,5.85
2022-10-10T16:35:10.629Z,6.38
2022-10-10T16:37:37.936Z,6.78
2022-10-10T16:40:05.613Z,6.60
2022-10-10T16:42:32.391Z,5.72
2022-10-10T16:44:59.190Z,6.28
2022-10-10T16:47:25.941Z,6.88
2022-10-10T16:49:52.691Z,6.80
2022-10-10T16:52:19.456Z,5.97
2022-10-10T16:54:49.956Z,5.90
2022-10-10T16:57:18.545Z,5.88
2022-10-10T16:59:45.253Z,5.70
2022-10-10T17:02:12.175Z,5.80
2022-10-10T17:04:38.820Z,6.40
2022-10-10T17:07:05.625Z,5.95
2022-10-10T17:09:32.454Z,5.38
2022-10-10T17:11:59.209Z,5.97
2022-10-10T17:14:25.881Z,5.50
2022-10-10T17:17:11.086Z,5.60
2022-10-10T17:19:38.206Z,6.10
2022-10-10T17:22:05.023Z,5.22
2022-10-10T17:24:31.788Z,6.00
2022-10-10T17:26:58.549Z,5.85
2022-10-10T17:29:25.416Z,5.70
2022-10-10T17:31:52.249Z,5.25
2022-10-10T17:34:19.349Z,6.18
2022-10-10T17:36:46.994Z,5.63
2022-10-10T17:39:13.937Z,5.88
2022-10-10T17:41:41.041Z,5.10
2022-10-10T17:44:10.813Z,5.22
2022-10-10T17:46:38.554Z,5.15
2022-10-10T17:49:08.475Z,4.88
2022-10-10T17:51:36.402Z,4.88
2022-10-10T17:54:04.426Z,5.03
2022-10-10T17:56:32.071Z,4.85
2022-10-10T17:59:02.425Z,4.40
2022-10-10T18:01:33.137Z,4.97
2022-10-10T18:04:00.582Z,4.60
2022-10-10T18:06:29.151Z,4.50
2022-10-10T18:08:56.445Z,4.18
2022-10-10T18:11:27.104Z,4.47
2022-10-10T18:13:56.371Z,4.43
2022-10-10T18:16:23.062Z,4.43
2022-10-10T18:18:51.905Z,4.18
2022-10-10T18:21:21.827Z,4.25
2022-10-10T18:23:49.092Z,4.05
2022-10-10T18:26:21.714Z,4.45
2022-10-10T18:28:49.859Z,4.43
2022-10-10T18:31:33.105Z,3.80
2022-10-10T18:34:00.745Z,4.10
2022-10-10T18:36:30.010Z,4.00
2022-10-10T18:41:33.786Z,4.28
2022-10-10T18:44:03.003Z,3.97
2022-10-10T18:46:30.413Z,3.58
2022-10-10T18:48:57.266Z,4.05
2022-10-10T18:51:26.474Z,4.20
2022-10-10T18:53:57.113Z,4.50
2022-10-10T18:56:26.778Z,4.25
2022-10-10T18:58:56.730Z,3.95
2022-10-10T19:01:25.690Z,3.88
2022-10-10T19:03:53.986Z,4.10
2022-10-10T19:06:22.672Z,4.20
2022-10-10T19:08:51.606Z,4.18
2022-10-10T19:11:21.761Z,3.92
2022-10-10T19:13:49.239Z,3.90
2022-10-10T19:16:16.385Z,4.18
2022-10-10T19:18:43.210Z,4.22
2022-10-10T19:21:10.347Z,4.20
2022-10-10T19:23:37.727Z,3.50
2022-10-10T19:26:06.956Z,4.10
2022-10-10T19:31:20.194Z,3.67
2022-10-10T19:33:52.325Z,4.00
2022-10-10T19:36:19.085Z,4.15
2022-10-10T19:38:46.432Z,3.90
2022-10-10T19:41:14.322Z,3.92
2022-10-10T19:43:46.674Z,4.28
2022-10-10T19:46:15.091Z,4.30
2022-10-10T19:48:42.061Z,4.07
2022-10-10T19:51:12.043Z,4.20
2022-10-10T19:53:57.615Z,3.58
2022-10-10T19:56:25.712Z,3.70
2022-10-10T19:58:54.953Z,4.05
2022-10-10T20:01:26.851Z,3.78
2022-10-10T20:03:56.256Z,4.00
2022-10-10T20:06:23.393Z,4.55
2022-10-10T20:08:50.390Z,4.68
2022-10-10T20:11:19.294Z,4.93
2022-10-10T20:13:46.567Z,5.00
2022-10-10T20:16:13.695Z,5.00
2022-10-10T20:18:42.307Z,5.28
2022-10-10T20:21:16.478Z,4.80
2022-10-10T20:23:47.111Z,4.57
2022-10-10T20:26:17.612Z,4.60
2022-10-10T20:28:45.898Z,4.68
2022-10-10T20:31:15.351Z,5.20
2022-10-10T20:36:09.800Z,4.93
2022-10-10T20:38:36.969Z,4.60
2022-10-10T20:41:06.953Z,4.70
2022-10-10T20:43:34.778Z,4.65
2022-10-10T20:46:09.897Z,4.85
2022-10-10T20:48:37.111Z,4.63
2022-10-10T20:51:11.779Z,4.88
2022-10-10T20:53:41.850Z,4.60
2022-10-10T20:56:11.009Z,4.57
2022-10-10T20:58:39.235Z,5.60
2022-10-10T21:01:14.890Z,4.90
2022-10-10T21:03:43.621Z,4.35
2022-10-10T21:06:11.891Z,4.28
2022-10-10T21:08:39.535Z,4.38
2022-10-10T21:11:08.875Z,4.50
2022-10-10T21:16:07.330Z,4.45
2022-10-10T21:18:34.333Z,4.70
2022-10-10T21:21:02.606Z,4.50
2022-10-10T21:23:32.851Z,4.53
2022-10-10T21:26:08.324Z,4.30
2022-10-10T21:28:35.977Z,4.50
2022-10-10T21:31:03.312Z,4.00
2022-10-10T21:33:30.767Z,4.20
2022-10-10T21:35:58.312Z,3.78
2022-10-10T21:38:25.574Z,3.88
2022-10-10T21:40:52.945Z,4.00
2022-10-10T21:43:19.799Z,4.00
2022-10-10T21:45:46.602Z,3.95
2022-10-10T21:48:13.508Z,4.32
2022-10-10T21:50:40.638Z,3.50
2022-10-10T21:53:08.371Z,3.90
2022-10-10T21:55:38.857Z,4.43
2022-10-10T21:58:05.640Z,3.92
2022-10-10T22:00:32.760Z,3.63
2022-10-10T22:02:59.364Z,3.75
2022-10-10T22:05:26.062Z,3.88
2022-10-10T22:07:52.810Z,4.00
2022-10-10T22:10:19.672Z,3.60
2022-10-10T22:12:46.717Z,3.60
2022-10-10T22:15:14.064Z,3.58
2022-10-10T22:17:41.184Z,3.78
2022-10-10T22:20:09.652Z,3.45
2022-10-10T22:22:41.798Z,2.90
2022-10-10T22:25:14.465Z,3.15
2022-10-10T22:27:41.897Z,3.50
2022-10-10T22:30:10.369Z,3.63
2022-10-10T22:32:37.123Z,3.33
2022-10-10T22:35:04.348Z,2.92
2022-10-10T22:37:30.969Z,3.40
2022-10-10T22:39:57.583Z,3.20
2022-10-10T22:42:24.259Z,3.50
2022-10-10T22:44:50.967Z,3.38
2022-10-10T22:47:17.665Z,2.90
2022-10-10T22:49:44.396Z,2.75
2022-10-10T22:52:11.358Z,3.13
2022-10-10T22:54:38.152Z,2.65
2022-10-10T22:57:04.909Z,2.63
2022-10-10T22:59:31.547Z,2.88
2022-10-10T23:01:58.049Z,2.42
2022-10-10T23:04:24.657Z,2.65
2022-10-10T23:06:51.482Z,2.70
2022-10-10T23:09:18.220Z,2.75
2022-10-10T23:11:44.766Z,3.08
2022-10-10T23:14:11.246Z,2.47
2022-10-10T23:16:40.708Z,2.58
2022-10-10T23:19:07.859Z,2.67
2022-10-10T23:21:34.709Z,2.25
2022-10-10T23:24:01.402Z,2.55
2022-10-10T23:26:28.043Z,2.40
2022-10-10T23:28:54.719Z,2.83
2022-10-10T23:31:21.406Z,2.28
2022-10-10T23:33:49.571Z,2.65
2022-10-10T23:36:16.416Z,2.35
2022-10-10T23:38:43.578Z,2.50
2022-10-10T23:41:11.770Z,2.40
2022-10-10T23:43:38.921Z,2.22
2022-10-10T23:46:06.303Z,2.05
2022-10-10T23:48:33.231Z,2.58
2022-10-10T23:51:00.017Z,2.25
2022-10-10T23:53:26.555Z,2.35
2022-10-10T23:55:53.214Z,2.35
2022-10-10T23:58:19.939Z,2.30
